createdAt,value
2018-08-28T00:01:06.202Z,72.30
2018-08-28T00:03:34.535Z,72.20
2018-08-28T00:06:02.496Z,72.00
2018-08-28T00:08:30.456Z,72.00
2018-08-28T00:10:58.448Z,72.10
2018-08-28T00:13:26.408Z,72.10
2018-08-28T00:15:54.354Z,72.30
2018-08-28T00:18:22.769Z,72.50
2018-08-28T00:20:50.711Z,72.50
2018-08-28T00:23:18.657Z,72.60
2018-08-28T00:25:46.976Z,72.70
2018-08-28T00:28:15.318Z,72.70
2018-08-28T00:30:43.270Z,72.50
2018-08-28T00:33:11.339Z,72.60
2018-08-28T00:35:39.553Z,72.90
2018-08-28T00:38:07.496Z,73.20
2018-08-28T00:40:35.923Z,72.90
2018-08-28T00:43:04.028Z,72.60
2018-08-28T00:45:31.980Z,72.30
2018-08-28T00:47:59.957Z,72.40
2018-08-28T00:50:27.885Z,72.50
2018-08-28T00:52:55.872Z,72.50
2018-08-28T00:55:23.813Z,72.60
2018-08-28T00:57:51.775Z,72.90
2018-08-28T01:00:19.870Z,72.90
2018-08-28T01:02:47.875Z,73.00
2018-08-28T01:05:15.808Z,73.20
2018-08-28T01:07:43.783Z,73.50
2018-08-28T01:10:11.791Z,73.50
2018-08-28T01:12:39.736Z,73.70
2018-08-28T01:15:08.420Z,73.80
2018-08-28T01:17:36.840Z,73.60
2018-08-28T01:20:05.679Z,73.60
2018-08-28T01:22:33.623Z,73.60
2018-08-28T01:25:01.567Z,73.80
2018-08-28T01:27:29.507Z,73.90
2018-08-28T01:29:57.597Z,74.00
2018-08-28T01:32:25.536Z,74.10
2018-08-28T01:34:53.496Z,74.70
2018-08-28T01:37:21.579Z,75.00
2018-08-28T01:39:49.543Z,75.30
2018-08-28T01:42:21.604Z,75.50
2018-08-28T01:44:50.304Z,75.80
2018-08-28T01:47:18.566Z,76.00
2018-08-28T01:49:47.767Z,76.10
2018-08-28T01:52:15.734Z,76.00
2018-08-28T01:54:43.721Z,75.80
2018-08-28T01:57:11.791Z,75.80
2018-08-28T01:59:39.768Z,76.00
2018-08-28T02:02:07.970Z,76.00
2018-08-28T02:04:36.004Z,76.00
2018-08-28T02:07:04.078Z,76.10
2018-08-28T02:09:32.104Z,76.00
2018-08-28T02:12:00.066Z,75.80
2018-08-28T02:14:28.097Z,75.80
2018-08-28T02:16:56.050Z,75.80
2018-08-28T02:19:23.997Z,76.00
2018-08-28T02:21:52.118Z,76.10
2018-08-28T02:24:20.088Z,76.20
2018-08-28T02:26:48.084Z,76.10
2018-08-28T02:29:16.080Z,76.00
2018-08-28T02:31:44.390Z,76.20
2018-08-28T02:34:12.469Z,76.30
2018-08-28T02:36:40.498Z,76.40
2018-08-28T02:39:09.846Z,76.40
2018-08-28T02:41:38.922Z,76.50
2018-08-28T02:44:07.014Z,76.40
2018-08-28T02:46:35.061Z,76.20
2018-08-28T02:49:03.238Z,76.10
2018-08-28T02:51:31.253Z,76.30
2018-08-28T02:53:59.424Z,76.80
2018-08-28T02:56:28.223Z,77.00
2018-08-28T02:58:56.825Z,77.20
2018-08-28T03:01:25.015Z,77.10
2018-08-28T03:03:53.517Z,76.80
2018-08-28T03:06:21.888Z,76.90
2018-08-28T03:08:49.826Z,76.80
2018-08-28T03:11:18.067Z,76.70
2018-08-28T03:13:46.005Z,76.50
2018-08-28T03:16:13.988Z,76.40
2018-08-28T03:18:42.012Z,76.50
2018-08-28T03:21:09.975Z,76.10
2018-08-28T03:23:38.612Z,75.90
2018-08-28T03:26:06.787Z,76.00
2018-08-28T03:28:34.727Z,75.90
2018-08-28T03:31:03.058Z,76.30
2018-08-28T03:33:31.113Z,76.10
2018-08-28T03:35:59.061Z,75.70
2018-08-28T03:38:27.069Z,76.10
2018-08-28T03:40:55.059Z,76.00
2018-08-28T03:43:23.091Z,76.10
2018-08-28T03:45:51.084Z,76.20
2018-08-28T03:48:19.122Z,75.90
2018-08-28T03:50:47.095Z,75.30
2018-08-28T03:53:15.377Z,75.30
2018-08-28T03:55:43.328Z,73.90
2018-08-28T03:58:11.309Z,73.60
2018-08-28T04:00:39.318Z,73.40
2018-08-28T04:03:07.250Z,73.20
2018-08-28T04:05:35.528Z,73.10
2018-08-28T04:08:03.506Z,72.90
2018-08-28T04:10:31.447Z,72.60
2018-08-28T04:12:59.410Z,72.40
2018-08-28T04:15:27.373Z,72.30
2018-08-28T04:17:55.375Z,72.00
2018-08-28T04:20:23.323Z,71.80
2018-08-28T04:22:51.285Z,71.60
2018-08-28T04:25:19.336Z,71.70
2018-08-28T04:27:47.736Z,71.80
2018-08-28T04:30:15.811Z,71.80
2018-08-28T04:32:43.762Z,71.60
2018-08-28T04:35:11.727Z,71.40
2018-08-28T04:37:39.689Z,71.60
2018-08-28T04:40:07.690Z,71.60
2018-08-28T04:42:35.631Z,71.50
2018-08-28T04:45:03.630Z,71.30
2018-08-28T04:47:31.574Z,71.30
2018-08-28T04:49:59.598Z,71.20
2018-08-28T04:52:27.573Z,71.20
2018-08-28T04:54:55.561Z,71.20
2018-08-28T04:57:23.497Z,71.20
2018-08-28T04:59:51.461Z,71.10
2018-08-28T05:02:19.534Z,70.80
2018-08-28T05:04:47.480Z,70.90
2018-08-28T05:07:15.468Z,71.00
2018-08-28T05:09:43.488Z,71.30
2018-08-28T05:12:11.449Z,71.50
2018-08-28T05:14:39.551Z,71.30
2018-08-28T05:17:07.520Z,71.30
2018-08-28T05:19:35.466Z,71.10
2018-08-28T05:22:03.415Z,71.10
2018-08-28T05:24:31.352Z,71.10
2018-08-28T05:26:59.286Z,70.90
2018-08-28T05:29:27.275Z,70.80
2018-08-28T05:31:55.196Z,70.80
2018-08-28T05:34:23.195Z,70.40
2018-08-28T05:36:51.514Z,70.50
2018-08-28T05:39:19.475Z,70.50
2018-08-28T05:41:47.425Z,70.60
2018-08-28T05:44:15.406Z,70.80
2018-08-28T05:46:43.393Z,71.70
2018-08-28T05:49:11.357Z,71.00
2018-08-28T05:51:39.320Z,70.90
2018-08-28T05:54:07.373Z,70.90
2018-08-28T05:56:35.319Z,70.80
2018-08-28T05:59:03.303Z,70.50
2018-08-28T06:01:31.321Z,70.40
2018-08-28T06:04:02.496Z,70.50
2018-08-28T06:06:30.466Z,71.20
2018-08-28T06:08:58.656Z,70.40
2018-08-28T06:11:26.553Z,70.70
2018-08-28T06:13:54.508Z,70.80
2018-08-28T06:16:22.459Z,70.50
2018-08-28T06:18:50.430Z,70.30
2018-08-28T06:21:18.369Z,70.40
2018-08-28T06:23:46.363Z,70.40
2018-08-28T06:26:14.484Z,70.30
2018-08-28T06:28:42.759Z,70.20
2018-08-28T06:31:10.732Z,70.10
2018-08-28T06:33:39.466Z,70.20
2018-08-28T06:36:07.546Z,70.00
2018-08-28T06:38:35.495Z,70.10
2018-08-28T06:41:03.530Z,70.50
2018-08-28T06:43:31.656Z,70.30
2018-08-28T06:45:59.749Z,70.40
2018-08-28T06:48:28.101Z,70.20
2018-08-28T06:50:56.136Z,70.20
2018-08-28T06:53:24.211Z,70.00
2018-08-28T06:55:52.525Z,69.80
2018-08-28T06:58:20.499Z,69.60
2018-08-28T07:00:48.450Z,69.50
2018-08-28T07:03:17.009Z,69.50
2018-08-28T07:05:45.069Z,69.30
2018-08-28T07:08:13.034Z,70.20
2018-08-28T07:10:41.004Z,69.60
2018-08-28T07:13:09.082Z,69.60
2018-08-28T07:15:37.025Z,69.30
2018-08-28T07:18:05.017Z,69.10
2018-08-28T07:20:33.257Z,69.10
2018-08-28T07:23:01.204Z,68.80
2018-08-28T07:25:29.254Z,68.40
2018-08-28T07:27:57.256Z,68.10
2018-08-28T07:30:25.206Z,68.30
2018-08-28T07:32:53.163Z,68.40
2018-08-28T07:35:21.396Z,68.10
2018-08-28T07:37:49.379Z,67.80
2018-08-28T07:40:17.319Z,67.60
2018-08-28T07:42:45.502Z,67.60
2018-08-28T07:45:13.437Z,68.30
2018-08-28T07:47:41.476Z,68.10
2018-08-28T07:50:09.533Z,67.60
2018-08-28T07:52:37.516Z,67.30
2018-08-28T07:55:05.896Z,67.20
2018-08-28T07:57:33.826Z,67.00
2018-08-28T08:00:01.761Z,67.00
2018-08-28T08:02:29.713Z,66.40
2018-08-28T08:04:57.743Z,66.50
2018-08-28T08:07:26.480Z,66.50
2018-08-28T08:09:54.645Z,66.40
2018-08-28T08:12:22.633Z,66.20
2018-08-28T08:14:50.579Z,66.10
2018-08-28T08:17:18.515Z,66.00
2018-08-28T08:19:46.483Z,65.60
2018-08-28T08:22:14.549Z,65.70
2018-08-28T08:24:42.789Z,65.60
2018-08-28T08:27:10.755Z,65.30
2018-08-28T08:29:38.828Z,65.30
2018-08-28T08:32:06.917Z,65.60
2018-08-28T08:34:34.888Z,65.50
2018-08-28T08:37:02.951Z,65.00
2018-08-28T08:39:31.177Z,65.30
2018-08-28T08:41:59.185Z,64.90
2018-08-28T08:44:27.100Z,65.30
2018-08-28T08:46:55.060Z,64.20
2018-08-28T08:49:23.031Z,64.00
2018-08-28T08:51:51.113Z,63.70
2018-08-28T08:54:19.054Z,63.70
2018-08-28T08:56:47.322Z,63.30
2018-08-28T08:59:15.280Z,63.10
2018-08-28T09:01:43.250Z,62.90
2018-08-28T09:04:11.288Z,62.70
2018-08-28T09:06:39.263Z,62.40
2018-08-28T09:09:07.260Z,61.70
2018-08-28T09:11:35.366Z,61.70
2018-08-28T09:14:03.488Z,61.80
2018-08-28T09:16:31.449Z,62.00
2018-08-28T09:18:59.404Z,62.40
2018-08-28T09:21:27.380Z,61.80
2018-08-28T09:23:55.354Z,62.10
2018-08-28T09:26:23.312Z,62.10
2018-08-28T09:28:51.263Z,61.50
2018-08-28T09:31:19.225Z,61.70
2018-08-28T09:33:47.274Z,61.70
2018-08-28T09:36:15.220Z,60.70
2018-08-28T09:38:43.362Z,60.80
2018-08-28T09:41:11.697Z,60.40
2018-08-28T09:43:39.660Z,61.00
2018-08-28T09:46:07.604Z,60.30
2018-08-28T09:48:35.767Z,60.60
2018-08-28T09:51:03.732Z,60.00
2018-08-28T09:53:31.816Z,59.40
2018-08-28T09:55:59.919Z,59.50
2018-08-28T09:58:28.102Z,57.90
2018-08-28T10:01:59.514Z,56.70
2018-08-28T10:04:27.666Z,56.70
2018-08-28T10:06:55.800Z,57.10
2018-08-28T10:09:23.915Z,57.10
2018-08-28T10:11:52.043Z,57.60
2018-08-28T10:14:20.190Z,57.50
2018-08-28T10:16:48.381Z,57.80
2018-08-28T10:19:16.535Z,55.90
2018-08-28T10:21:44.701Z,53.70
2018-08-28T10:24:12.819Z,54.00
2018-08-28T10:26:40.942Z,53.80
2018-08-28T10:29:09.049Z,54.00
2018-08-28T10:31:37.181Z,54.00
2018-08-28T10:34:05.392Z,54.20
2018-08-28T10:36:33.522Z,54.40
2018-08-28T10:39:01.624Z,54.30
2018-08-28T10:41:29.769Z,54.10
2018-08-28T10:43:57.916Z,54.20
2018-08-28T10:46:26.162Z,54.00
2018-08-28T10:48:54.252Z,53.60
2018-08-28T10:51:22.431Z,53.80
2018-08-28T10:53:50.654Z,53.80
2018-08-28T10:56:18.604Z,53.70
2018-08-28T10:58:46.616Z,53.80
2018-08-28T11:01:14.587Z,53.60
2018-08-28T11:03:42.652Z,53.70
2018-08-28T11:06:10.689Z,53.70
2018-08-28T11:08:38.998Z,52.70
2018-08-28T11:11:06.938Z,53.00
2018-08-28T11:13:34.888Z,53.40
2018-08-28T11:16:02.867Z,53.30
2018-08-28T11:18:30.860Z,53.40
2018-08-28T11:20:58.909Z,53.10
2018-08-28T11:23:26.867Z,51.90
2018-08-28T11:25:54.827Z,51.60
2018-08-28T11:28:22.767Z,51.10
2018-08-28T11:30:50.702Z,50.70
2018-08-28T11:33:18.664Z,50.60
2018-08-28T11:35:46.698Z,50.70
2018-08-28T11:38:15.660Z,51.00
2018-08-28T11:40:43.614Z,51.10
2018-08-28T11:43:11.713Z,51.20
2018-08-28T11:45:39.628Z,51.20
2018-08-28T11:48:07.896Z,51.10
2018-08-28T11:50:35.912Z,51.00
2018-08-28T11:53:03.864Z,51.20
2018-08-28T11:55:31.803Z,51.40
2018-08-28T11:58:00.915Z,51.60
2018-08-28T12:00:28.860Z,51.70
2018-08-28T12:02:56.808Z,51.80
2018-08-28T12:05:24.851Z,51.50
2018-08-28T12:07:59.592Z,51.00
2018-08-28T12:10:27.879Z,50.90
2018-08-28T12:12:55.856Z,50.60
2018-08-28T12:15:23.770Z,50.40
2018-08-28T12:17:51.732Z,50.20
2018-08-28T12:20:19.735Z,50.40
2018-08-28T12:22:47.687Z,50.20
2018-08-28T12:25:15.620Z,49.20
2018-08-28T12:27:43.567Z,50.10
2018-08-28T12:30:12.086Z,50.30
2018-08-28T12:32:40.069Z,50.30
2018-08-28T12:35:08.063Z,50.40
2018-08-28T12:37:36.188Z,50.20
2018-08-28T12:40:04.588Z,50.20
2018-08-28T12:42:32.736Z,50.50
2018-08-28T12:45:00.776Z,50.70
2018-08-28T12:47:28.833Z,50.90
2018-08-28T12:49:56.800Z,51.10
2018-08-28T12:52:24.776Z,51.10
2018-08-28T12:54:52.787Z,50.70
2018-08-28T12:57:20.722Z,50.90
2018-08-28T12:59:48.729Z,50.90
2018-08-28T13:02:16.772Z,50.70
2018-08-28T13:04:44.639Z,50.70
2018-08-28T13:07:12.609Z,49.80
2018-08-28T13:09:40.554Z,49.80
2018-08-28T13:12:08.708Z,49.90
2018-08-28T13:14:36.723Z,50.20
2018-08-28T13:17:04.655Z,50.50
2018-08-28T13:19:32.630Z,50.40
2018-08-28T13:22:00.549Z,50.50
2018-08-28T13:24:28.970Z,50.20
2018-08-28T13:26:56.923Z,50.20
2018-08-28T13:29:24.900Z,50.30
2018-08-28T13:31:52.870Z,50.40
2018-08-28T13:34:20.816Z,50.50
2018-08-28T13:36:48.848Z,50.50
2018-08-28T13:39:17.466Z,50.80
2018-08-28T13:41:45.451Z,50.70
2018-08-28T13:44:13.833Z,50.50
2018-08-28T13:46:41.791Z,50.50
2018-08-28T13:49:10.253Z,50.50
2018-08-28T13:51:38.322Z,50.20
2018-08-28T13:54:06.340Z,49.60
2018-08-28T13:56:34.301Z,49.50
2018-08-28T13:59:02.780Z,48.80
2018-08-28T14:01:30.788Z,48.60
2018-08-28T14:03:58.731Z,48.10
2018-08-28T14:06:26.768Z,48.40
2018-08-28T14:08:54.725Z,48.70
2018-08-28T14:11:22.768Z,48.90
2018-08-28T14:16:25.172Z,49.00
2018-08-28T14:18:53.120Z,49.10
2018-08-28T14:21:21.092Z,49.00
2018-08-28T14:23:49.103Z,49.20
2018-08-28T14:26:17.057Z,49.40
2018-08-28T14:28:45.055Z,49.00
2018-08-28T14:31:13.061Z,48.80
2018-08-28T14:33:41.065Z,48.10
2018-08-28T14:36:09.095Z,47.10
2018-08-28T14:38:37.088Z,46.20
2018-08-28T14:41:05.121Z,46.20
2018-08-28T14:43:33.061Z,46.30
2018-08-28T14:46:01.227Z,46.30
2018-08-28T14:48:29.291Z,46.10
2018-08-28T14:50:57.610Z,46.10
2018-08-28T14:53:25.644Z,46.50
2018-08-28T14:55:53.584Z,46.70
2018-08-28T14:58:21.579Z,46.90
2018-08-28T15:00:49.537Z,47.50
2018-08-28T15:03:17.528Z,47.90
2018-08-28T15:05:45.484Z,48.60
2018-08-28T15:08:13.430Z,49.60
2018-08-28T15:10:41.381Z,49.80
2018-08-28T15:15:42.476Z,50.30
2018-08-28T15:18:10.604Z,50.30
2018-08-28T15:20:38.559Z,50.20
2018-08-28T15:23:06.604Z,50.10
2018-08-28T15:25:34.845Z,50.10
2018-08-28T15:28:02.768Z,49.80
2018-08-28T15:30:30.795Z,49.70
2018-08-28T15:32:59.038Z,49.70
2018-08-28T15:35:27.025Z,49.70
2018-08-28T15:37:55.015Z,49.20
2018-08-28T15:40:22.985Z,49.20
2018-08-28T15:42:50.957Z,48.80
2018-08-28T15:45:18.950Z,48.80
2018-08-28T15:47:46.874Z,48.90
2018-08-28T15:50:14.899Z,49.60
2018-08-28T15:52:42.844Z,48.70
2018-08-28T15:55:10.823Z,48.40
2018-08-28T15:57:38.777Z,48.50
2018-08-28T16:00:06.883Z,48.50
2018-08-28T16:02:34.843Z,48.40
2018-08-28T16:05:02.979Z,48.00
2018-08-28T16:07:30.944Z,48.00
2018-08-28T16:09:59.111Z,47.90
2018-08-28T16:12:27.383Z,48.00
2018-08-28T16:14:55.335Z,48.00
2018-08-28T16:17:23.292Z,48.00
2018-08-28T16:19:51.249Z,48.10
2018-08-28T16:22:23.373Z,48.00
2018-08-28T16:24:51.361Z,48.20
2018-08-28T16:27:19.583Z,48.00
2018-08-28T16:29:47.565Z,48.30
2018-08-28T16:32:15.496Z,48.40
2018-08-28T16:34:43.526Z,48.30
2018-08-28T16:37:11.564Z,48.50
2018-08-28T16:39:39.461Z,48.50
2018-08-28T16:42:07.420Z,48.80
2018-08-28T16:44:35.381Z,49.10
2018-08-28T16:47:03.408Z,49.40
2018-08-28T16:49:31.345Z,49.50
2018-08-28T16:51:59.598Z,49.70
2018-08-28T16:54:27.540Z,49.60
2018-08-28T16:56:55.475Z,49.60
2018-08-28T16:59:23.710Z,49.80
2018-08-28T17:01:51.668Z,50.00
2018-08-28T17:04:19.755Z,49.90
2018-08-28T17:06:47.708Z,50.10
2018-08-28T17:09:15.668Z,50.70
2018-08-28T17:11:43.618Z,49.90
2018-08-28T17:14:11.558Z,49.80
2018-08-28T17:16:39.526Z,50.00
2018-08-28T17:19:07.517Z,50.00
2018-08-28T17:21:35.484Z,49.90
2018-08-28T17:24:03.465Z,50.00
2018-08-28T17:26:31.424Z,50.00
2018-08-28T17:28:59.396Z,50.00
2018-08-28T17:31:27.399Z,50.10
2018-08-28T17:33:55.372Z,50.60
2018-08-28T17:36:23.335Z,51.00
2018-08-28T17:38:51.281Z,51.00
2018-08-28T17:41:19.240Z,51.60
2018-08-28T17:43:47.176Z,51.10
2018-08-28T17:46:15.136Z,51.10
2018-08-28T17:48:43.228Z,51.00
2018-08-28T17:51:11.124Z,51.10
2018-08-28T17:53:39.092Z,51.10
2018-08-28T17:56:07.068Z,51.10
2018-08-28T17:58:35.078Z,51.20
2018-08-28T18:01:03.038Z,51.10
2018-08-28T18:03:31.197Z,51.20
2018-08-28T18:05:59.337Z,51.40
2018-08-28T18:08:27.457Z,51.60
2018-08-28T18:10:55.698Z,51.80
2018-08-28T18:13:23.947Z,52.30
2018-08-28T18:15:52.101Z,52.30
2018-08-28T18:18:20.216Z,52.40
2018-08-28T18:20:48.333Z,52.50
2018-08-28T18:23:17.244Z,52.70
2018-08-28T18:25:45.240Z,52.70
2018-08-28T18:28:13.189Z,52.70
2018-08-28T18:30:41.145Z,52.80
2018-08-28T18:33:09.207Z,53.10
2018-08-28T18:35:41.099Z,53.30
2018-08-28T18:38:09.040Z,53.40
2018-08-28T18:40:37.068Z,53.40
2018-08-28T18:43:05.107Z,53.50
2018-08-28T18:45:34.043Z,53.50
2018-08-28T18:48:02.288Z,53.70
2018-08-28T18:50:30.313Z,53.90
2018-08-28T18:52:58.308Z,53.90
2018-08-28T18:55:26.262Z,54.10
2018-08-28T18:57:54.332Z,54.30
2018-08-28T19:00:22.300Z,54.40
2018-08-28T19:02:50.660Z,54.70
2018-08-28T19:05:18.649Z,54.80
2018-08-28T19:07:46.904Z,55.10
2018-08-28T19:10:15.018Z,55.40
2018-08-28T19:12:43.044Z,55.50
2018-08-28T19:15:11.032Z,55.60
2018-08-28T19:17:39.213Z,55.70
2018-08-28T19:20:07.514Z,56.20
2018-08-28T19:22:35.631Z,56.20
2018-08-28T19:25:03.703Z,56.10
2018-08-28T19:27:31.749Z,56.20
2018-08-28T19:29:59.792Z,56.30
2018-08-28T19:32:27.776Z,56.80
2018-08-28T19:34:55.837Z,56.90
2018-08-28T19:37:24.047Z,57.00
2018-08-28T19:39:52.594Z,57.20
2018-08-28T19:42:20.599Z,57.50
2018-08-28T19:44:48.628Z,57.70
2018-08-28T19:47:16.651Z,58.00
2018-08-28T19:49:44.721Z,58.20
2018-08-28T19:52:12.884Z,58.40
2018-08-28T19:54:41.703Z,58.20
2018-08-28T19:57:09.680Z,58.10
2018-08-28T19:59:38.510Z,58.10
2018-08-28T20:02:06.491Z,58.00
2018-08-28T20:04:34.868Z,58.00
2018-08-28T20:07:03.800Z,58.00
2018-08-28T20:09:31.767Z,58.10
2018-08-28T20:11:59.797Z,58.00
2018-08-28T20:14:27.821Z,58.10
2018-08-28T20:16:55.789Z,58.30
2018-08-28T20:19:23.776Z,58.40
2018-08-28T20:21:51.785Z,58.40
2018-08-28T20:24:19.765Z,58.50
2018-08-28T20:26:47.979Z,58.50
2018-08-28T20:29:15.868Z,58.60
2018-08-28T20:31:43.916Z,58.60
2018-08-28T20:34:11.929Z,58.80
2018-08-28T20:36:39.886Z,58.90
2018-08-28T20:39:07.970Z,59.00
2018-08-28T20:41:36.523Z,59.20
2018-08-28T20:44:04.467Z,59.20
2018-08-28T20:46:32.507Z,59.40
2018-08-28T20:49:00.526Z,59.50
2018-08-28T20:51:28.852Z,59.50
2018-08-28T20:53:56.806Z,59.90
2018-08-28T20:56:24.861Z,59.90
2018-08-28T20:58:53.387Z,60.10
2018-08-28T21:01:21.340Z,60.10
2018-08-28T21:03:49.356Z,60.20
2018-08-28T21:06:17.434Z,60.50
2018-08-28T21:08:45.464Z,60.60
2018-08-28T21:11:13.636Z,60.40
2018-08-28T21:13:41.567Z,61.60
2018-08-28T21:16:09.574Z,60.60
2018-08-28T21:18:37.745Z,60.70
2018-08-28T21:21:05.824Z,60.70
2018-08-28T21:23:33.896Z,60.80
2018-08-28T21:26:01.894Z,61.40
2018-08-28T21:28:29.885Z,61.80
2018-08-28T21:30:57.900Z,61.80
2018-08-28T21:33:25.874Z,61.70
2018-08-28T21:35:53.831Z,61.70
2018-08-28T21:38:21.924Z,61.40
2018-08-28T21:40:49.985Z,61.40
2018-08-28T21:43:17.953Z,61.40
2018-08-28T21:45:46.036Z,61.30
2018-08-28T21:48:14.073Z,61.40
2018-08-28T21:50:42.437Z,61.60
2018-08-28T21:53:10.387Z,61.50
2018-08-28T21:55:38.418Z,61.60
2018-08-28T21:58:06.557Z,61.70
2018-08-28T22:00:34.497Z,61.60
2018-08-28T22:03:02.534Z,61.70
2018-08-28T22:05:31.632Z,61.80
2018-08-28T22:07:59.835Z,61.80
2018-08-28T22:10:28.698Z,61.90
2018-08-28T22:12:56.665Z,61.90
2018-08-28T22:15:24.951Z,61.90
2018-08-28T22:17:53.240Z,62.00
2018-08-28T22:20:21.289Z,62.40
2018-08-28T22:22:49.303Z,62.40
2018-08-28T22:25:17.662Z,62.50
2018-08-28T22:27:45.614Z,62.50
2018-08-28T22:30:13.677Z,62.50
2018-08-28T22:32:42.214Z,62.70
2018-08-28T22:35:10.325Z,62.60
2018-08-28T22:37:38.278Z,62.70
2018-08-28T22:40:08.562Z,62.90
2018-08-28T22:42:36.589Z,63.00
2018-08-28T22:45:04.635Z,63.10
2018-08-28T22:47:39.297Z,63.10
2018-08-28T22:50:07.569Z,63.30
2018-08-28T22:52:35.571Z,63.50
2018-08-28T22:55:03.602Z,63.40
2018-08-28T22:57:31.690Z,63.30
2018-08-28T22:59:59.667Z,63.40
2018-08-28T23:02:27.628Z,63.70
2018-08-28T23:04:55.586Z,63.70
2018-08-28T23:07:23.813Z,63.60
2018-08-28T23:09:51.947Z,63.60
2018-08-28T23:12:19.988Z,63.70
2018-08-28T23:14:47.884Z,63.80
2018-08-28T23:17:15.955Z,63.80
2018-08-28T23:19:43.894Z,63.90
2018-08-28T23:22:11.995Z,63.90
2018-08-28T23:24:40.068Z,64.00
2018-08-28T23:27:08.038Z,64.00
2018-08-28T23:29:36.065Z,64.00
2018-08-28T23:32:04.501Z,64.10
2018-08-28T23:34:32.567Z,64.10
2018-08-28T23:37:00.636Z,64.00
2018-08-28T23:39:28.571Z,64.10
2018-08-28T23:41:56.623Z,64.20
2018-08-28T23:44:24.762Z,64.20
2018-08-28T23:46:52.703Z,64.40
2018-08-28T23:49:20.683Z,64.50
2018-08-28T23:51:48.743Z,64.50
2018-08-28T23:54:16.765Z,64.60
2018-08-28T23:56:44.699Z,64.50
2018-08-28T23:59:12.920Z,64.60
